createdAt,value
2022-09-30T00:00:08.946Z,2.50
2022-09-30T00:02:55.537Z,2.80
2022-09-30T00:05:41.556Z,2.72
2022-09-30T00:08:27.875Z,2.33
2022-09-30T00:11:18.521Z,1.95
2022-09-30T00:14:04.700Z,1.95
2022-09-30T00:16:51.221Z,2.58
2022-09-30T00:19:37.316Z,2.38
2022-09-30T00:22:23.487Z,2.30
2022-09-30T00:25:09.889Z,2.85
2022-09-30T00:27:55.965Z,3.13
2022-09-30T00:30:42.275Z,4.30
2022-09-30T00:33:28.328Z,3.92
2022-09-30T00:36:38.590Z,3.08
2022-09-30T00:39:26.026Z,2.80
2022-09-30T00:42:14.339Z,2.50
2022-09-30T00:45:05.541Z,2.35
2022-09-30T00:47:56.929Z,2.58
2022-09-30T00:50:47.461Z,2.47
2022-09-30T00:53:46.409Z,2.15
2022-09-30T00:56:34.749Z,2.40
2022-09-30T00:59:26.877Z,2.30
2022-09-30T01:02:14.638Z,2.30
2022-09-30T01:05:00.722Z,2.53
2022-09-30T01:07:47.611Z,3.25
2022-09-30T01:10:33.802Z,1.95
2022-09-30T01:13:20.475Z,2.42
2022-09-30T01:16:07.076Z,2.58
2022-09-30T01:18:53.333Z,2.20
2022-09-30T01:21:57.681Z,2.35
2022-09-30T01:25:04.358Z,1.98
2022-09-30T01:27:50.232Z,2.42
2022-09-30T01:30:39.483Z,2.15
2022-09-30T01:33:25.679Z,1.80
2022-09-30T01:36:15.029Z,2.35
2022-09-30T01:39:07.513Z,2.20
2022-09-30T01:42:20.964Z,1.80
2022-09-30T01:45:18.718Z,2.00
2022-09-30T01:48:04.749Z,2.42
2022-09-30T01:51:04.018Z,2.25
2022-09-30T01:53:54.321Z,2.15
2022-09-30T01:56:43.888Z,2.00
2022-09-30T01:59:36.381Z,2.10
2022-09-30T02:02:25.507Z,2.03
2022-09-30T02:05:15.865Z,2.00
2022-09-30T02:08:06.026Z,2.17
2022-09-30T02:10:56.405Z,2.20
2022-09-30T02:13:56.644Z,2.33
2022-09-30T02:17:03.121Z,1.63
2022-09-30T02:19:57.465Z,1.77
2022-09-30T02:22:48.477Z,2.03
2022-09-30T02:25:38.424Z,1.77
2022-09-30T02:28:28.738Z,1.90
2022-09-30T02:31:15.908Z,2.10
2022-09-30T02:34:08.009Z,2.08
2022-09-30T02:37:01.362Z,2.53
2022-09-30T02:39:58.256Z,3.10
2022-09-30T02:42:45.705Z,2.33
2022-09-30T02:45:35.124Z,2.35
2022-09-30T02:48:27.803Z,2.22
2022-09-30T02:54:12.595Z,2.20
2022-09-30T02:57:01.324Z,1.65
2022-09-30T02:59:52.389Z,1.90
2022-09-30T03:02:38.643Z,1.70
2022-09-30T03:05:25.113Z,1.70
2022-09-30T03:08:11.229Z,2.28
2022-09-30T03:10:57.324Z,1.75
2022-09-30T03:13:46.545Z,1.75
2022-09-30T03:16:51.054Z,1.83
2022-09-30T03:19:46.424Z,1.75
2022-09-30T03:22:41.755Z,1.73
2022-09-30T03:25:46.614Z,2.40
2022-09-30T03:28:38.845Z,1.98
2022-09-30T03:34:37.835Z,1.77
2022-09-30T03:37:34.081Z,1.98
2022-09-30T03:40:26.804Z,1.95
2022-09-30T03:43:19.022Z,1.90
2022-09-30T03:48:56.010Z,2.50
2022-09-30T03:51:42.340Z,2.10
2022-09-30T03:54:29.077Z,2.08
2022-09-30T03:57:15.192Z,2.17
2022-09-30T04:00:01.849Z,2.35
2022-09-30T04:02:55.799Z,2.30
2022-09-30T04:05:44.046Z,2.15
2022-09-30T04:08:33.764Z,2.40
2022-09-30T04:11:20.929Z,2.08
2022-09-30T04:14:07.012Z,2.28
2022-09-30T04:16:54.122Z,2.88
2022-09-30T04:19:40.511Z,2.72
2022-09-30T04:22:26.760Z,2.67
2022-09-30T04:25:12.944Z,2.35
2022-09-30T04:27:59.139Z,1.95
2022-09-30T04:30:45.287Z,2.38
2022-09-30T04:33:31.539Z,2.38
2022-09-30T04:36:18.138Z,2.20
2022-09-30T04:39:04.571Z,2.03
2022-09-30T04:41:51.067Z,2.55
2022-09-30T04:44:37.138Z,2.80
2022-09-30T04:47:25.331Z,3.13
2022-09-30T04:50:11.540Z,2.95
2022-09-30T04:52:57.804Z,3.00
2022-09-30T04:55:44.750Z,3.33
2022-09-30T04:58:36.889Z,2.50
2022-09-30T05:01:23.369Z,3.10
2022-09-30T05:04:10.614Z,2.90
2022-09-30T05:06:56.664Z,2.95
2022-09-30T05:09:42.992Z,2.90
2022-09-30T05:12:29.145Z,4.43
2022-09-30T05:15:15.382Z,3.75
2022-09-30T05:18:02.005Z,2.85
2022-09-30T05:20:51.902Z,2.60
2022-09-30T05:23:38.414Z,3.05
2022-09-30T05:26:24.676Z,2.65
2022-09-30T05:29:11.084Z,2.13
2022-09-30T05:31:57.382Z,2.83
2022-09-30T05:35:03.624Z,3.10
2022-09-30T05:37:49.585Z,2.92
2022-09-30T05:40:42.299Z,2.65
2022-09-30T05:43:28.346Z,2.50
2022-09-30T05:46:14.970Z,20.42
2022-09-30T05:49:01.054Z,4.22
2022-09-30T05:51:48.317Z,4.78
2022-09-30T05:54:34.466Z,3.63
2022-09-30T05:57:21.182Z,4.50
2022-09-30T06:00:27.317Z,4.32
2022-09-30T06:03:14.072Z,4.07
2022-09-30T06:06:00.324Z,3.88
2022-09-30T06:08:47.110Z,4.68
2022-09-30T06:11:35.039Z,4.53
2022-09-30T06:14:39.638Z,5.13
2022-09-30T06:17:25.894Z,4.55
2022-09-30T06:20:12.430Z,3.65
2022-09-30T06:22:59.622Z,4.32
2022-09-30T06:25:46.832Z,4.40
2022-09-30T06:28:35.879Z,4.10
2022-09-30T06:31:22.156Z,4.35
2022-09-30T06:34:08.485Z,4.03
2022-09-30T06:36:54.783Z,3.70
2022-09-30T06:39:41.865Z,4.00
2022-09-30T06:42:28.109Z,4.40
2022-09-30T06:45:27.863Z,4.53
2022-09-30T06:48:22.819Z,3.70
2022-09-30T06:51:14.110Z,6.60
2022-09-30T06:54:00.498Z,8.45
2022-09-30T06:56:49.728Z,7.30
2022-09-30T06:59:36.083Z,7.85
2022-09-30T07:02:22.392Z,6.13
2022-09-30T07:05:09.587Z,7.03
2022-09-30T07:07:56.391Z,6.75
2022-09-30T07:10:42.379Z,5.95
2022-09-30T07:13:28.590Z,5.50
2022-09-30T07:16:15.657Z,5.60
2022-09-30T07:19:02.161Z,6.43
2022-09-30T07:21:49.042Z,6.00
2022-09-30T07:24:36.792Z,6.25
2022-09-30T07:27:22.715Z,4.07
2022-09-30T07:30:12.782Z,5.10
2022-09-30T07:33:06.716Z,5.45
2022-09-30T07:35:53.816Z,5.65
2022-09-30T07:38:41.329Z,6.13
2022-09-30T07:41:29.218Z,7.20
2022-09-30T07:44:15.783Z,5.80
2022-09-30T07:47:02.216Z,7.95
2022-09-30T07:49:48.727Z,8.07
2022-09-30T07:52:34.728Z,7.32
2022-09-30T07:55:21.053Z,6.50
2022-09-30T07:58:10.568Z,5.53
2022-09-30T08:00:56.850Z,6.07
2022-09-30T08:04:02.804Z,5.55
2022-09-30T08:06:50.953Z,11.45
2022-09-30T08:09:38.175Z,10.68
2022-09-30T08:12:24.359Z,11.75
2022-09-30T08:15:10.672Z,10.00
2022-09-30T08:17:56.729Z,7.28
2022-09-30T08:20:43.122Z,6.07
2022-09-30T08:23:29.728Z,5.53
2022-09-30T08:26:16.910Z,5.25
2022-09-30T08:29:36.091Z,3.80
2022-09-30T08:32:31.594Z,4.07
2022-09-30T08:35:17.527Z,7.78
2022-09-30T08:38:03.953Z,5.95
2022-09-30T08:40:59.344Z,4.47
2022-09-30T08:43:59.566Z,4.18
2022-09-30T08:46:47.821Z,1.80
2022-09-30T08:49:37.200Z,2.47
2022-09-30T08:52:31.001Z,2.35
2022-09-30T08:55:40.420Z,1.60
2022-09-30T08:58:28.392Z,2.85
2022-09-30T09:01:21.011Z,1.88
2022-09-30T09:04:10.362Z,1.73
2022-09-30T09:07:08.085Z,1.50
2022-09-30T09:10:07.739Z,1.95
2022-09-30T09:13:12.935Z,1.55
2022-09-30T09:16:07.789Z,1.30
2022-09-30T09:19:13.844Z,1.25
2022-09-30T09:22:02.422Z,1.45
2022-09-30T09:24:51.061Z,1.27
2022-09-30T09:27:39.351Z,1.10
2022-09-30T09:30:26.869Z,1.48
2022-09-30T09:33:21.404Z,1.50
2022-09-30T09:36:13.916Z,1.48
2022-09-30T09:39:09.238Z,1.00
2022-09-30T09:42:04.657Z,1.25
2022-09-30T09:45:01.199Z,2.05
2022-09-30T09:47:51.495Z,2.42
2022-09-30T09:50:51.003Z,1.40
2022-09-30T09:53:44.573Z,1.65
2022-09-30T09:56:32.452Z,1.70
2022-09-30T09:59:20.388Z,1.52
2022-09-30T10:02:22.531Z,1.23
2022-09-30T10:05:25.632Z,1.60
2022-09-30T10:08:14.570Z,1.13
2022-09-30T10:11:03.683Z,0.93
2022-09-30T10:13:57.647Z,0.98
2022-09-30T10:16:44.332Z,1.27
2022-09-30T10:19:31.284Z,1.15
2022-09-30T10:22:17.538Z,1.40
2022-09-30T10:25:11.121Z,1.52
2022-09-30T10:27:58.777Z,1.60
2022-09-30T10:30:55.495Z,1.50
2022-09-30T10:33:47.081Z,1.60
2022-09-30T10:39:27.952Z,1.08
2022-09-30T10:42:25.958Z,1.50
2022-09-30T10:45:20.847Z,1.10
2022-09-30T10:48:08.156Z,1.88
2022-09-30T10:51:27.370Z,1.42
2022-09-30T10:54:33.961Z,1.65
2022-09-30T10:57:32.033Z,1.15
2022-09-30T11:00:23.922Z,1.45
2022-09-30T11:05:57.292Z,1.60
2022-09-30T11:08:56.188Z,2.58
2022-09-30T11:11:46.156Z,2.42
2022-09-30T11:14:35.242Z,1.35
2022-09-30T11:17:29.882Z,1.65
2022-09-30T11:20:20.232Z,1.73
2022-09-30T11:23:26.700Z,1.33
2022-09-30T11:26:25.297Z,1.30
2022-09-30T11:29:27.470Z,1.65
2022-09-30T11:35:18.267Z,0.95
2022-09-30T11:38:07.554Z,2.53
2022-09-30T11:41:04.750Z,1.33
2022-09-30T11:43:52.405Z,1.27
2022-09-30T11:46:45.225Z,1.05
2022-09-30T11:49:37.612Z,1.02
2022-09-30T11:52:29.967Z,0.93
2022-09-30T11:55:22.642Z,1.02
2022-09-30T11:58:36.115Z,1.02
2022-09-30T12:01:21.994Z,1.08
2022-09-30T12:04:17.310Z,1.27
2022-09-30T12:07:21.110Z,1.30
2022-09-30T12:10:27.555Z,1.20
2022-09-30T12:13:18.667Z,1.30
2022-09-30T12:16:09.197Z,1.63
2022-09-30T12:18:58.164Z,1.35
2022-09-30T12:21:56.129Z,1.13
2022-09-30T12:24:43.221Z,1.52
2022-09-30T12:27:29.494Z,1.30
2022-09-30T12:30:17.945Z,0.95
2022-09-30T12:33:13.198Z,1.23
2022-09-30T12:36:03.900Z,1.55
2022-09-30T12:39:08.608Z,1.20
2022-09-30T12:42:03.883Z,1.30
2022-09-30T12:45:05.516Z,1.00
2022-09-30T12:47:56.839Z,0.93
2022-09-30T12:53:35.487Z,1.02
2022-09-30T12:56:26.339Z,0.93
2022-09-30T12:59:13.676Z,1.00
2022-09-30T13:02:08.885Z,0.88
2022-09-30T13:05:18.079Z,1.58
2022-09-30T13:08:04.571Z,1.35
2022-09-30T13:10:58.199Z,1.83
2022-09-30T13:14:04.726Z,1.80
2022-09-30T13:17:01.367Z,2.55
2022-09-30T13:19:52.032Z,1.30
2022-09-30T13:22:44.366Z,2.28
2022-09-30T13:25:50.882Z,1.90
2022-09-30T13:28:40.154Z,1.45
2022-09-30T13:31:29.407Z,1.42
2022-09-30T13:34:22.987Z,2.00
2022-09-30T13:37:28.833Z,1.67
2022-09-30T13:40:18.935Z,1.73
2022-09-30T13:43:05.493Z,1.13
2022-09-30T13:45:53.443Z,1.42
2022-09-30T13:48:42.131Z,1.10
2022-09-30T13:51:30.781Z,1.48
2022-09-30T13:54:31.665Z,0.90
2022-09-30T13:57:26.831Z,1.80
2022-09-30T14:00:15.300Z,1.52
2022-09-30T14:03:20.810Z,1.35
2022-09-30T14:06:13.194Z,1.55
2022-09-30T14:09:11.515Z,1.13
2022-09-30T14:12:18.490Z,1.02
2022-09-30T14:15:12.093Z,1.30
2022-09-30T14:18:05.680Z,2.70
2022-09-30T14:21:11.178Z,1.67
2022-09-30T14:23:59.210Z,1.85
2022-09-30T14:27:03.551Z,1.02
2022-09-30T14:29:52.975Z,2.13
2022-09-30T14:32:47.113Z,1.70
2022-09-30T14:38:37.651Z,1.33
2022-09-30T14:41:24.119Z,2.20
2022-09-30T14:44:17.312Z,1.77
2022-09-30T14:47:03.926Z,1.83
2022-09-30T14:49:50.021Z,2.00
2022-09-30T14:52:45.956Z,1.73
2022-09-30T14:55:34.261Z,1.35
2022-09-30T14:58:22.528Z,1.73
2022-09-30T15:01:15.375Z,2.10
2022-09-30T15:04:04.653Z,1.40
2022-09-30T15:06:51.345Z,1.20
2022-09-30T15:09:38.560Z,1.17
2022-09-30T15:12:26.219Z,1.45
2022-09-30T15:15:26.278Z,1.42
2022-09-30T15:18:33.953Z,1.75
2022-09-30T15:21:21.615Z,0.70
2022-09-30T15:24:10.345Z,1.23
2022-09-30T15:26:57.231Z,1.27
2022-09-30T15:29:56.440Z,1.00
2022-09-30T15:32:42.816Z,1.00
2022-09-30T15:35:29.616Z,1.13
2022-09-30T15:38:15.768Z,1.40
2022-09-30T15:41:07.977Z,1.58
2022-09-30T15:43:54.727Z,1.27
2022-09-30T15:46:40.812Z,1.50
2022-09-30T15:49:32.026Z,1.33
2022-09-30T15:52:29.154Z,1.98
2022-09-30T15:55:35.197Z,1.25
2022-09-30T15:58:32.740Z,1.25
2022-09-30T16:01:22.386Z,1.73
2022-09-30T16:04:23.102Z,2.20
2022-09-30T16:07:11.106Z,1.75
2022-09-30T16:09:59.135Z,1.67
2022-09-30T16:12:49.531Z,1.70
2022-09-30T16:15:40.641Z,1.67
2022-09-30T16:18:31.420Z,1.50
2022-09-30T16:21:50.877Z,1.20
2022-09-30T16:24:36.919Z,1.92
2022-09-30T16:27:29.266Z,2.42
2022-09-30T16:30:16.590Z,2.42
2022-09-30T16:33:03.983Z,3.05
2022-09-30T16:35:50.567Z,2.88
2022-09-30T16:38:36.659Z,2.75
2022-09-30T16:41:23.262Z,2.63
2022-09-30T16:44:09.864Z,2.60
2022-09-30T16:46:55.846Z,3.10
2022-09-30T16:49:43.213Z,3.90
2022-09-30T16:52:29.430Z,4.18
2022-09-30T16:58:06.888Z,4.13
2022-09-30T17:00:53.482Z,7.88
2022-09-30T17:03:39.918Z,5.68
2022-09-30T17:06:29.178Z,3.83
2022-09-30T17:09:19.426Z,10.02
2022-09-30T17:12:07.421Z,6.28
2022-09-30T17:14:59.372Z,9.27
2022-09-30T17:17:46.864Z,11.80
2022-09-30T17:20:38.339Z,3.60
2022-09-30T17:23:26.257Z,3.85
2022-09-30T17:26:17.231Z,3.08
2022-09-30T17:29:21.217Z,2.83
2022-09-30T17:32:11.667Z,2.88
2022-09-30T17:34:58.003Z,3.25
2022-09-30T17:37:46.419Z,3.47
2022-09-30T17:40:51.579Z,3.50
2022-09-30T17:43:40.656Z,2.97
2022-09-30T17:46:27.661Z,3.22
2022-09-30T17:49:14.572Z,3.25
2022-09-30T17:52:00.687Z,3.35
2022-09-30T17:54:52.044Z,3.63
2022-09-30T17:57:40.047Z,3.67
2022-09-30T18:00:28.194Z,3.22
2022-09-30T18:03:14.177Z,2.92
2022-09-30T18:06:00.806Z,3.28
2022-09-30T18:08:50.795Z,2.50
2022-09-30T18:11:42.877Z,2.33
2022-09-30T18:14:35.176Z,2.50
2022-09-30T18:17:21.357Z,2.20
2022-09-30T18:20:10.198Z,2.42
2022-09-30T18:22:56.512Z,2.03
2022-09-30T18:25:44.043Z,2.70
2022-09-30T18:28:33.092Z,2.67
2022-09-30T18:31:29.132Z,3.33
2022-09-30T18:34:15.418Z,3.15
2022-09-30T18:37:04.172Z,3.42
2022-09-30T18:39:50.881Z,2.47
2022-09-30T18:42:37.926Z,2.63
2022-09-30T18:45:27.975Z,2.33
2022-09-30T18:48:14.591Z,2.92
2022-09-30T18:51:04.057Z,2.33
2022-09-30T18:53:57.919Z,2.60
2022-09-30T18:56:46.000Z,2.63
2022-09-30T18:59:31.917Z,2.75
2022-09-30T19:02:20.887Z,3.70
2022-09-30T19:05:07.781Z,2.70
2022-09-30T19:07:54.331Z,2.95
2022-09-30T19:10:42.192Z,2.22
2022-09-30T19:13:28.817Z,2.70
2022-09-30T19:16:19.688Z,3.08
2022-09-30T19:19:08.248Z,2.90
2022-09-30T19:21:56.423Z,3.00
2022-09-30T19:24:45.206Z,1.98
2022-09-30T19:27:33.294Z,2.80
2022-09-30T19:30:20.918Z,2.58
2022-09-30T19:33:06.858Z,3.40
2022-09-30T19:36:14.444Z,2.40
2022-09-30T19:39:12.200Z,2.85
2022-09-30T19:42:03.146Z,2.90
2022-09-30T19:44:50.848Z,2.58
2022-09-30T19:47:36.938Z,2.42
2022-09-30T19:50:23.094Z,3.15
2022-09-30T19:53:09.801Z,3.00
2022-09-30T19:56:14.831Z,3.00
2022-09-30T19:59:00.834Z,2.67
2022-09-30T20:01:47.044Z,2.55
2022-09-30T20:04:34.368Z,2.63
2022-09-30T20:07:20.261Z,3.13
2022-09-30T20:10:06.589Z,3.47
2022-09-30T20:12:52.905Z,2.28
2022-09-30T20:15:51.438Z,2.72
2022-09-30T20:18:38.102Z,3.70
2022-09-30T20:21:27.050Z,2.88
2022-09-30T20:24:14.790Z,2.70
2022-09-30T20:27:00.719Z,2.92
2022-09-30T20:29:46.792Z,3.08
2022-09-30T20:32:32.950Z,2.03
2022-09-30T20:35:18.972Z,2.05
2022-09-30T20:38:05.382Z,2.35
2022-09-30T20:40:58.519Z,2.70
2022-09-30T20:43:49.302Z,2.90
2022-09-30T20:46:38.682Z,2.90
2022-09-30T20:49:25.297Z,2.33
2022-09-30T20:52:11.631Z,2.03
2022-09-30T20:54:59.981Z,2.70
2022-09-30T20:57:46.186Z,2.63
2022-09-30T21:00:33.724Z,3.33
2022-09-30T21:03:19.591Z,2.28
2022-09-30T21:06:07.511Z,3.67
2022-09-30T21:08:53.720Z,3.80
2022-09-30T21:11:42.190Z,3.90
2022-09-30T21:14:28.482Z,3.33
2022-09-30T21:17:15.128Z,2.10
2022-09-30T21:20:01.722Z,2.70
2022-09-30T21:22:54.049Z,2.55
2022-09-30T21:25:40.411Z,2.30
2022-09-30T21:28:27.374Z,3.03
2022-09-30T21:31:17.861Z,2.17
2022-09-30T21:34:04.074Z,2.67
2022-09-30T21:36:50.223Z,2.55
2022-09-30T21:39:36.407Z,2.63
2022-09-30T21:42:23.409Z,2.92
2022-09-30T21:45:09.458Z,2.13
2022-09-30T21:48:02.759Z,2.47
2022-09-30T21:50:48.507Z,2.33
2022-09-30T21:53:34.897Z,3.78
2022-09-30T21:56:21.433Z,2.88
2022-09-30T21:59:07.864Z,2.15
2022-09-30T22:01:54.352Z,2.70
2022-09-30T22:04:41.146Z,2.97
2022-09-30T22:07:27.860Z,2.70
2022-09-30T22:10:13.864Z,3.08
2022-09-30T22:13:00.022Z,2.50
2022-09-30T22:15:46.909Z,2.55
2022-09-30T22:18:34.062Z,2.88
2022-09-30T22:21:20.448Z,3.03
2022-09-30T22:24:08.033Z,2.30
2022-09-30T22:26:53.944Z,2.40
2022-09-30T22:29:40.191Z,2.20
2022-09-30T22:32:27.483Z,2.72
2022-09-30T22:35:32.408Z,2.47
2022-09-30T22:38:18.374Z,2.55
2022-09-30T22:41:04.689Z,2.20
2022-09-30T22:43:51.153Z,2.42
2022-09-30T22:46:38.048Z,2.20
2022-09-30T22:49:24.737Z,2.50
2022-09-30T22:52:10.795Z,2.58
2022-09-30T22:54:57.161Z,2.30
2022-09-30T22:57:43.724Z,2.63
2022-09-30T23:00:29.999Z,2.72
2022-09-30T23:03:16.191Z,2.83
2022-09-30T23:06:03.103Z,2.20
2022-09-30T23:08:49.142Z,2.15
2022-09-30T23:11:39.433Z,3.08
2022-09-30T23:14:25.280Z,2.60
2022-09-30T23:17:13.214Z,2.17
2022-09-30T23:19:59.376Z,2.17
2022-09-30T23:22:45.229Z,2.35
2022-09-30T23:25:31.700Z,2.78
2022-09-30T23:28:18.202Z,1.88
2022-09-30T23:31:09.337Z,2.17
2022-09-30T23:33:56.721Z,2.47
2022-09-30T23:36:42.650Z,1.63
2022-09-30T23:39:30.788Z,2.17
2022-09-30T23:42:18.654Z,1.92
2022-09-30T23:45:04.669Z,1.95
2022-09-30T23:47:50.902Z,1.83
2022-09-30T23:50:37.104Z,2.22
2022-09-30T23:53:23.531Z,2.15
2022-09-30T23:56:10.939Z,2.13
2022-09-30T23:58:57.500Z,1.95
